Moorhead, Iowa
Current Conditions -  °F | °C
As of 9:54 PM on Friday 19 Dec 2014 (Local Time) from KTQE Reporting Station
Haze Haze  
Wind Chill: 24°   Ceiling: 1300
Heat Index: 32°   Visibility: 6mi
Dew Point: 30°   Wind: 10mph
Humidity: 92%   Direction: 140°SE
Pressure: 30.14"   Gusts: NA
Location:  41.92°N, 95.85°W
Report Text: KTQE 200354Z AUTO 14009KT 6SM BR OVC013 00/M01 A3014 RMK AO2 SLP211 T00001011
Loading
Personal Weather Stations






























Interactive Weather Map New forecast layout! Learn more

10-Day Weather Forecast

Advertisements
Track Severe Weather on mobile